Main page
METAR-TAF:

METAR-TAF

Airports :

Kangra Airport

Dharamsala, India

latitude: 32-09-54N, longitude: 76-15-48E, elevation: 770 m

Current weather observation

The report was made 9 hours and 38 minutes ago, at 10:00 UTC
Wind 6 kt from the Southwest
Temperature 28°C
Humidity 40%
Pressure 1013 hPa
Visibility: 8000 m
Few clouds at a height of 3500 ft

METAR: VIGG 191000Z 22006KT 8000 FEW035 28/13 Q1013

Time: 01:08 (19:38 UTC)

Forecast

The report was made 14 hours and 38 minutes ago, at 05:00 UTC
Forecast valid from 19 at 06 UTC to 19 at 15 UTC
Wind 2 kt from variable directions
Visibility: 5000 m
Few clouds at a height of 3000 ft
Scattered clouds at a height of 8000 ft
haze

TAF: VIGG 190500Z 1906/1915 VRB02KT 5000 HZ FEW030 SCT080

Weather observations and forecasts of more than 4000 airports (METAR and TAF reports).

The available stations are represented by yellow and red dots on the map.

Hover mouse over dot to see the name of the station.

Then click to see weather observations and forecasts.

To change the map : click on the green buttons with a black cross to zoom in, on the green button with a dash to zoom out, or on the green arrows for adjacent maps.


METAR-TAF: